createdAt,value
2022-11-14T00:01:12.876Z,8.48
2022-11-14T00:03:42.071Z,8.45
2022-11-14T00:06:09.069Z,8.73
2022-11-14T00:08:36.217Z,8.68
2022-11-14T00:11:03.261Z,8.95
2022-11-14T00:13:29.805Z,8.65
2022-11-14T00:15:56.511Z,8.45
2022-11-14T00:18:23.696Z,8.48
2022-11-14T00:20:52.184Z,8.50
2022-11-14T00:23:19.920Z,8.73
2022-11-14T00:25:46.987Z,8.73
2022-11-14T00:28:13.536Z,8.18
2022-11-14T00:30:40.286Z,7.97
2022-11-14T00:33:06.810Z,8.57
2022-11-14T00:35:33.363Z,8.73
2022-11-14T00:37:59.873Z,8.20
2022-11-14T00:40:28.928Z,8.55
2022-11-14T00:42:55.436Z,9.02
2022-11-14T00:45:22.067Z,9.02
2022-11-14T00:47:48.709Z,9.40
2022-11-14T00:50:17.081Z,10.43
2022-11-14T00:52:46.101Z,9.82
2022-11-14T00:55:12.656Z,9.77
2022-11-14T00:57:39.231Z,9.18
2022-11-14T01:00:07.008Z,9.43
2022-11-14T01:02:33.813Z,9.70
2022-11-14T01:05:02.897Z,8.80
2022-11-14T01:07:29.550Z,9.43
2022-11-14T01:09:56.202Z,9.82
2022-11-14T01:12:22.720Z,9.90
2022-11-14T01:14:49.283Z,9.20
2022-11-14T01:17:15.866Z,9.63
2022-11-14T01:19:42.384Z,9.15
2022-11-14T01:22:09.301Z,8.75
2022-11-14T01:24:35.873Z,9.40
2022-11-14T01:27:02.564Z,9.48
2022-11-14T01:29:29.158Z,9.73
2022-11-14T01:31:56.103Z,9.93
2022-11-14T01:34:23.274Z,9.75
2022-11-14T01:36:49.807Z,10.25
2022-11-14T01:39:16.388Z,9.70
2022-11-14T01:41:42.925Z,10.27
2022-11-14T01:44:17.435Z,10.82
2022-11-14T01:46:50.426Z,10.32
2022-11-14T01:49:26.043Z,9.83
2022-11-14T01:52:03.542Z,10.25
2022-11-14T01:54:34.811Z,10.20
2022-11-14T01:57:03.077Z,11.82
2022-11-14T01:59:34.567Z,11.07
2022-11-14T02:02:07.086Z,11.10
2022-11-14T02:04:39.723Z,10.80
2022-11-14T02:07:07.408Z,11.25
2022-11-14T02:09:41.058Z,10.73
2022-11-14T02:12:10.159Z,10.15
2022-11-14T02:14:38.029Z,10.02
2022-11-14T02:17:28.582Z,9.95
2022-11-14T02:20:05.770Z,10.00
2022-11-14T02:22:32.821Z,9.88
2022-11-14T02:24:59.375Z,10.45
2022-11-14T02:27:26.445Z,9.90
2022-11-14T02:29:52.961Z,10.23
2022-11-14T02:32:19.592Z,10.23
2022-11-14T02:34:46.106Z,10.02
2022-11-14T02:37:12.625Z,10.55
2022-11-14T02:39:39.345Z,10.25
2022-11-14T02:42:05.956Z,10.27
2022-11-14T02:44:32.611Z,10.50
2022-11-14T02:47:02.152Z,9.55
2022-11-14T02:49:28.674Z,9.68
2022-11-14T02:51:55.151Z,10.38
2022-11-14T02:54:21.698Z,10.15
2022-11-14T02:56:48.215Z,10.15
2022-11-14T02:59:14.716Z,11.07
2022-11-14T03:01:43.574Z,9.27
2022-11-14T03:04:10.112Z,9.80
2022-11-14T03:06:36.853Z,10.30
2022-11-14T03:09:03.623Z,9.52
2022-11-14T03:11:31.210Z,9.73
2022-11-14T03:13:59.568Z,9.93
2022-11-14T03:16:26.271Z,9.85
2022-11-14T03:18:53.317Z,10.18
2022-11-14T03:21:22.015Z,10.02
2022-11-14T03:23:48.811Z,10.45
2022-11-14T03:26:16.429Z,9.50
2022-11-14T03:28:43.149Z,9.82
2022-11-14T03:31:13.322Z,9.77
2022-11-14T03:33:40.268Z,9.88
2022-11-14T03:36:07.775Z,10.13
2022-11-14T03:38:35.709Z,9.85
2022-11-14T03:41:02.259Z,9.88
2022-11-14T03:43:34.917Z,9.40
2022-11-14T03:46:02.747Z,9.50
2022-11-14T03:48:29.957Z,9.57
2022-11-14T03:50:57.160Z,10.40
2022-11-14T03:53:24.142Z,9.80
2022-11-14T03:55:53.150Z,9.38
2022-11-14T03:58:19.801Z,9.75
2022-11-14T04:00:46.546Z,10.02
2022-11-14T04:03:13.277Z,9.40
2022-11-14T04:05:39.971Z,9.70
2022-11-14T04:08:07.249Z,9.75
2022-11-14T04:10:33.932Z,9.40
2022-11-14T04:13:00.491Z,9.75
2022-11-14T04:15:27.009Z,9.45
2022-11-14T04:17:56.014Z,9.85
2022-11-14T04:20:22.545Z,9.38
2022-11-14T04:22:51.280Z,9.45
2022-11-14T04:25:17.939Z,9.00
2022-11-14T04:27:44.477Z,9.05
2022-11-14T04:30:11.612Z,9.90
2022-11-14T04:32:38.164Z,8.82
2022-11-14T04:35:05.102Z,9.20
2022-11-14T04:37:31.959Z,8.70
2022-11-14T04:40:01.045Z,9.48
2022-11-14T04:42:28.391Z,8.90
2022-11-14T04:44:55.385Z,8.75
2022-11-14T04:47:22.140Z,9.10
2022-11-14T04:49:48.887Z,10.10
2022-11-14T04:52:16.013Z,9.18
2022-11-14T04:54:42.743Z,8.70
2022-11-14T04:57:09.644Z,9.40
2022-11-14T04:59:36.475Z,9.07
2022-11-14T05:02:05.681Z,9.90
2022-11-14T05:04:32.565Z,10.23
2022-11-14T05:06:59.430Z,12.95
2022-11-14T05:09:26.217Z,13.13
2022-11-14T05:11:52.905Z,12.40
2022-11-14T05:14:19.610Z,10.88
2022-11-14T05:16:46.454Z,11.20
2022-11-14T05:19:13.207Z,11.55
2022-11-14T05:21:42.065Z,10.55
2022-11-14T05:24:09.098Z,11.13
2022-11-14T05:26:35.761Z,11.02
2022-11-14T05:29:02.369Z,11.23
2022-11-14T05:31:29.195Z,11.43
2022-11-14T05:33:58.381Z,10.55
2022-11-14T05:36:25.117Z,10.63
2022-11-14T05:38:52.235Z,11.27
2022-11-14T05:41:22.376Z,10.30
2022-11-14T05:43:49.029Z,10.95
2022-11-14T05:46:16.841Z,10.23
2022-11-14T05:48:43.857Z,10.75
2022-11-14T05:51:15.176Z,10.55
2022-11-14T05:53:44.091Z,9.90
2022-11-14T05:56:13.028Z,10.43
2022-11-14T05:58:40.182Z,11.35
2022-11-14T06:01:08.465Z,11.65
2022-11-14T06:03:37.295Z,12.70
2022-11-14T06:06:09.285Z,11.30
2022-11-14T06:08:36.760Z,10.80
2022-11-14T06:11:05.567Z,11.63
2022-11-14T06:13:32.780Z,11.23
2022-11-14T06:16:05.065Z,11.13
2022-11-14T06:18:33.069Z,11.18
2022-11-14T06:21:04.206Z,12.18
2022-11-14T06:23:30.776Z,11.63
2022-11-14T06:26:02.247Z,12.02
2022-11-14T06:28:29.848Z,12.93
2022-11-14T06:31:01.218Z,12.98
2022-11-14T06:33:29.547Z,13.85
2022-11-14T06:36:04.915Z,13.75
2022-11-14T06:38:32.932Z,14.52
2022-11-14T06:41:13.477Z,15.65
2022-11-14T06:43:45.357Z,16.00
2022-11-14T06:46:14.986Z,16.33
2022-11-14T06:48:43.193Z,16.10
2022-11-14T06:51:14.024Z,15.85
2022-11-14T06:53:44.917Z,15.32
2022-11-14T06:56:13.548Z,15.32
2022-11-14T06:58:44.469Z,13.43
2022-11-14T07:01:14.163Z,17.95
2022-11-14T07:03:44.126Z,20.45
2022-11-14T07:06:13.365Z,16.48
2022-11-14T07:08:40.253Z,15.48
2022-11-14T07:11:09.603Z,15.48
2022-11-14T07:13:37.832Z,15.45
2022-11-14T07:16:05.319Z,15.25
2022-11-14T07:18:33.914Z,15.20
2022-11-14T07:21:03.559Z,14.77
2022-11-14T07:23:32.124Z,14.88
2022-11-14T07:26:09.706Z,14.60
2022-11-14T07:28:37.985Z,14.98
2022-11-14T07:31:06.094Z,14.35
2022-11-14T07:33:33.712Z,14.68
2022-11-14T07:36:00.261Z,14.40
2022-11-14T07:38:27.327Z,14.40
2022-11-14T07:41:00.079Z,16.52
2022-11-14T07:43:27.539Z,16.37
2022-11-14T07:45:55.536Z,16.40
2022-11-14T07:48:23.824Z,16.45
2022-11-14T07:50:50.961Z,17.70
2022-11-14T07:53:18.095Z,16.77
2022-11-14T07:55:44.918Z,16.83
2022-11-14T07:58:14.563Z,16.40
2022-11-14T08:00:41.466Z,17.52
2022-11-14T08:03:10.818Z,18.70
2022-11-14T08:05:37.576Z,18.25
2022-11-14T08:08:04.705Z,18.33
2022-11-14T08:10:33.752Z,17.17
2022-11-14T08:13:30.142Z,16.55
2022-11-14T08:15:50.675Z,15.23
2022-11-14T08:18:17.645Z,15.70
2022-11-14T08:20:44.850Z,16.48
2022-11-14T08:23:12.479Z,16.27
2022-11-14T08:25:39.323Z,14.68
2022-11-14T08:28:08.291Z,14.40
2022-11-14T08:30:35.395Z,12.20
2022-11-14T08:33:03.866Z,10.40
2022-11-14T08:35:31.004Z,8.43
2022-11-14T08:37:57.624Z,8.90
2022-11-14T08:40:24.464Z,8.90
2022-11-14T08:42:51.392Z,8.52
2022-11-14T08:45:18.090Z,8.20
2022-11-14T08:47:51.001Z,8.35
2022-11-14T08:50:17.848Z,8.50
2022-11-14T08:52:50.313Z,8.63
2022-11-14T08:55:17.271Z,8.50
2022-11-14T08:57:49.046Z,8.70
2022-11-14T09:00:16.598Z,8.15
2022-11-14T09:02:43.264Z,7.78
2022-11-14T09:05:11.210Z,8.00
2022-11-14T09:07:38.075Z,8.23
2022-11-14T09:10:05.321Z,8.20
2022-11-14T09:12:35.260Z,8.90
2022-11-14T09:15:04.662Z,8.32
2022-11-14T09:17:31.275Z,7.95
2022-11-14T09:19:57.897Z,8.00
2022-11-14T09:22:24.675Z,8.07
2022-11-14T09:24:52.199Z,8.10
2022-11-14T09:27:19.126Z,7.68
2022-11-14T09:29:45.997Z,7.28
2022-11-14T09:32:12.549Z,7.28
2022-11-14T09:34:43.091Z,6.50
2022-11-14T09:37:10.142Z,6.70
2022-11-14T09:39:40.562Z,6.85
2022-11-14T09:42:07.391Z,6.80
2022-11-14T09:44:49.547Z,6.05
2022-11-14T09:47:27.551Z,6.75
2022-11-14T09:50:02.336Z,6.25
2022-11-14T09:52:46.454Z,7.22
2022-11-14T09:58:05.382Z,6.10
2022-11-14T10:00:58.441Z,6.57
2022-11-14T10:04:07.026Z,6.10
2022-11-14T10:06:50.379Z,6.75
2022-11-14T10:09:17.090Z,6.63
2022-11-14T10:11:59.604Z,7.47
2022-11-14T10:14:38.533Z,7.43
2022-11-14T10:17:37.581Z,7.05
2022-11-14T10:20:18.669Z,7.10
2022-11-14T10:23:16.365Z,7.32
2022-11-14T10:25:54.808Z,7.38
2022-11-14T10:28:43.218Z,7.63
2022-11-14T10:31:38.188Z,7.28
2022-11-14T10:34:51.323Z,7.72
2022-11-14T10:37:37.759Z,7.50
2022-11-14T10:40:22.279Z,7.10
2022-11-14T10:43:00.617Z,7.93
2022-11-14T10:45:35.110Z,7.78
2022-11-14T10:48:09.219Z,8.20
2022-11-14T10:51:06.520Z,7.50
2022-11-14T10:53:57.590Z,7.40
2022-11-14T10:56:24.455Z,7.72
2022-11-14T10:58:51.230Z,7.78
2022-11-14T11:01:42.441Z,7.68
2022-11-14T11:04:13.632Z,8.05
2022-11-14T11:06:40.906Z,8.07
2022-11-14T11:09:34.362Z,7.70
2022-11-14T11:12:06.851Z,7.87
2022-11-14T11:14:34.762Z,7.72
2022-11-14T11:17:11.544Z,8.07
2022-11-14T11:19:42.616Z,8.15
2022-11-14T11:22:30.162Z,7.57
2022-11-14T11:24:57.005Z,7.90
2022-11-14T11:27:26.951Z,8.20
2022-11-14T11:30:05.181Z,7.85
2022-11-14T11:32:32.018Z,7.57
2022-11-14T11:35:01.537Z,8.13
2022-11-14T11:37:35.967Z,7.80
2022-11-14T11:40:06.343Z,7.50
2022-11-14T11:43:31.564Z,7.63
2022-11-14T11:45:31.700Z,7.28
2022-11-14T11:48:05.593Z,7.32
2022-11-14T11:53:11.321Z,7.60
2022-11-14T11:55:44.119Z,7.50
2022-11-14T11:58:22.739Z,8.60
2022-11-14T12:00:55.210Z,8.90
2022-11-14T12:03:24.749Z,9.80
2022-11-14T12:06:20.757Z,8.77
2022-11-14T12:08:56.104Z,8.50
2022-11-14T12:11:26.405Z,9.23
2022-11-14T12:14:01.649Z,9.15
2022-11-14T12:16:59.257Z,8.80
2022-11-14T12:19:53.846Z,8.43
2022-11-14T12:22:42.824Z,8.25
2022-11-14T12:25:21.470Z,8.88
2022-11-14T12:28:09.019Z,8.27
2022-11-14T12:30:37.298Z,7.63
2022-11-14T12:33:35.888Z,8.10
2022-11-14T12:36:08.656Z,6.93
2022-11-14T12:38:46.685Z,6.82
2022-11-14T12:41:24.485Z,7.20
2022-11-14T12:43:53.324Z,7.32
2022-11-14T12:46:22.588Z,7.18
2022-11-14T12:48:49.023Z,6.72
2022-11-14T12:51:24.981Z,6.20
2022-11-14T12:53:52.840Z,6.13
2022-11-14T12:56:25.365Z,5.40
2022-11-14T12:59:10.234Z,5.85
2022-11-14T13:01:50.240Z,5.80
2022-11-14T13:04:16.804Z,5.10
2022-11-14T13:07:02.084Z,5.72
2022-11-14T13:09:36.090Z,6.43
2022-11-14T13:12:53.070Z,5.78
2022-11-14T13:15:38.031Z,5.47
2022-11-14T13:18:39.979Z,6.07
2022-11-14T13:21:45.891Z,5.93
2022-11-14T13:24:19.790Z,5.82
2022-11-14T13:26:52.671Z,5.30
2022-11-14T13:29:40.918Z,6.07
2022-11-14T13:32:12.159Z,5.63
2022-11-14T13:34:45.156Z,5.65
2022-11-14T13:37:35.036Z,5.63
2022-11-14T13:40:18.683Z,5.47
2022-11-14T13:43:03.763Z,5.40
2022-11-14T13:45:39.317Z,5.35
2022-11-14T13:48:47.770Z,5.53
2022-11-14T13:54:16.348Z,5.00
2022-11-14T13:57:00.502Z,5.15
2022-11-14T13:59:57.022Z,4.97
2022-11-14T14:02:26.574Z,5.10
2022-11-14T14:04:56.095Z,4.72
2022-11-14T14:07:37.961Z,5.07
2022-11-14T14:10:26.223Z,5.00
2022-11-14T14:13:31.830Z,4.63
2022-11-14T14:16:07.533Z,4.80
2022-11-14T14:18:54.503Z,4.53
2022-11-14T14:21:44.358Z,5.00
2022-11-14T14:24:17.130Z,5.03
2022-11-14T14:27:21.598Z,5.53
2022-11-14T14:30:02.614Z,6.20
2022-11-14T14:32:31.530Z,6.70
2022-11-14T14:35:00.493Z,6.18
2022-11-14T14:37:29.283Z,6.78
2022-11-14T14:40:01.077Z,6.50
2022-11-14T14:42:36.536Z,6.43
2022-11-14T14:45:04.533Z,6.45
2022-11-14T14:47:44.736Z,6.22
2022-11-14T14:50:27.115Z,6.50
2022-11-14T14:53:02.014Z,7.85
2022-11-14T14:55:32.450Z,7.05
2022-11-14T14:58:26.271Z,7.20
2022-11-14T15:01:01.626Z,7.88
2022-11-14T15:03:37.121Z,7.22
2022-11-14T15:06:22.349Z,7.20
2022-11-14T15:08:49.643Z,7.65
2022-11-14T15:11:16.506Z,7.95
2022-11-14T15:13:43.759Z,7.50
2022-11-14T15:16:14.071Z,7.22
2022-11-14T15:18:40.915Z,8.77
2022-11-14T15:21:10.656Z,9.23
2022-11-14T15:23:39.109Z,9.02
2022-11-14T15:26:18.022Z,12.07
2022-11-14T15:28:47.809Z,13.10
2022-11-14T15:31:22.595Z,15.23
2022-11-14T15:34:04.825Z,12.50
2022-11-14T15:36:31.674Z,12.70
2022-11-14T15:39:03.648Z,9.88
2022-11-14T15:41:32.233Z,8.23
2022-11-14T15:44:03.049Z,8.30
2022-11-14T15:46:40.711Z,23.83
2022-11-14T15:49:08.876Z,18.05
2022-11-14T15:51:50.752Z,12.10
2022-11-14T15:54:34.662Z,9.05
2022-11-14T15:57:15.087Z,10.55
2022-11-14T15:59:41.843Z,11.15
2022-11-14T16:02:18.271Z,10.85
2022-11-14T16:04:47.895Z,10.43
2022-11-14T16:07:18.134Z,9.85
2022-11-14T16:09:45.194Z,9.15
2022-11-14T16:12:12.019Z,7.93
2022-11-14T16:14:41.164Z,7.90
2022-11-14T16:17:14.109Z,9.95
2022-11-14T16:19:46.066Z,11.77
2022-11-14T16:22:15.942Z,10.70
2022-11-14T16:24:42.390Z,10.15
2022-11-14T16:27:11.719Z,11.23
2022-11-14T16:29:40.696Z,11.20
2022-11-14T16:32:10.396Z,11.18
2022-11-14T16:34:36.846Z,15.70
2022-11-14T16:37:03.529Z,20.27
2022-11-14T16:39:32.992Z,18.23
2022-11-14T16:42:02.450Z,14.02
2022-11-14T16:44:29.054Z,14.30
2022-11-14T16:46:55.537Z,15.73
2022-11-14T16:49:22.109Z,15.48
2022-11-14T16:51:50.682Z,16.30
2022-11-14T16:54:20.782Z,15.05
2022-11-14T16:56:48.028Z,12.48
2022-11-14T16:59:14.764Z,15.18
2022-11-14T17:01:41.612Z,15.10
2022-11-14T17:04:08.388Z,14.02
2022-11-14T17:06:37.287Z,12.20
2022-11-14T17:09:03.969Z,15.43
2022-11-14T17:11:33.078Z,17.45
2022-11-14T17:13:59.618Z,19.15
2022-11-14T17:16:26.167Z,15.82
2022-11-14T17:18:56.575Z,12.82
2022-11-14T17:21:24.255Z,11.43
2022-11-14T17:23:54.647Z,11.82
2022-11-14T17:26:21.413Z,12.77
2022-11-14T17:28:47.979Z,13.95
2022-11-14T17:31:15.917Z,20.02
2022-11-14T17:33:42.369Z,18.65
2022-11-14T17:36:10.400Z,17.90
2022-11-14T17:38:38.219Z,14.82
2022-11-14T17:41:08.158Z,14.35
2022-11-14T17:43:39.547Z,11.80
2022-11-14T17:46:12.634Z,18.27
2022-11-14T17:48:42.709Z,15.60
2022-11-14T17:51:12.801Z,12.60
2022-11-14T17:53:40.056Z,11.07
2022-11-14T17:56:09.913Z,11.32
2022-11-14T17:58:39.237Z,10.02
2022-11-14T18:01:14.472Z,10.40
2022-11-14T18:03:41.642Z,14.98
2022-11-14T18:06:10.464Z,17.42
2022-11-14T18:08:37.727Z,16.88
2022-11-14T18:11:06.107Z,15.98
2022-11-14T18:13:33.297Z,17.08
2022-11-14T18:16:19.947Z,16.85
2022-11-14T18:18:46.472Z,17.48
2022-11-14T18:21:18.965Z,17.10
2022-11-14T18:23:54.552Z,13.85
2022-11-14T18:26:27.133Z,15.75
2022-11-14T18:28:58.813Z,13.95
2022-11-14T18:31:28.138Z,11.68
2022-11-14T18:33:57.441Z,12.45
2022-11-14T18:36:24.262Z,15.18
2022-11-14T18:38:50.776Z,15.65
2022-11-14T18:41:19.384Z,18.77
2022-11-14T18:43:46.118Z,34.72
2022-11-14T18:46:21.714Z,37.38
2022-11-14T18:48:52.571Z,43.17
2022-11-14T18:51:22.037Z,40.13
2022-11-14T18:53:48.777Z,34.35
2022-11-14T18:56:18.029Z,35.63
2022-11-14T18:58:45.397Z,34.58
2022-11-14T19:01:13.964Z,27.48
2022-11-14T19:03:40.539Z,26.02
2022-11-14T19:06:08.806Z,20.05
2022-11-14T19:08:35.337Z,17.90
2022-11-14T19:11:05.370Z,15.07
2022-11-14T19:13:32.083Z,14.70
2022-11-14T19:16:05.590Z,20.20
2022-11-14T19:18:35.161Z,17.38
2022-11-14T19:21:06.084Z,17.20
2022-11-14T19:23:33.902Z,18.65
2022-11-14T19:26:01.727Z,18.40
2022-11-14T19:28:32.309Z,18.45
2022-11-14T19:31:05.967Z,18.52
2022-11-14T19:33:35.232Z,18.48
2022-11-14T19:36:06.792Z,18.95
2022-11-14T19:38:33.512Z,19.63
2022-11-14T19:41:09.334Z,20.50
2022-11-14T19:43:43.336Z,18.55
2022-11-14T19:46:10.548Z,19.70
2022-11-14T19:48:37.815Z,20.80
2022-11-14T19:51:09.698Z,21.38
2022-11-14T19:53:37.675Z,22.58
2022-11-14T19:56:09.769Z,23.10
2022-11-14T19:58:37.879Z,22.95
2022-11-14T20:01:06.786Z,22.95
2022-11-14T20:03:33.716Z,22.90
2022-11-14T20:06:00.641Z,21.60
2022-11-14T20:08:27.282Z,22.65
2022-11-14T20:11:04.922Z,21.58
2022-11-14T20:13:38.002Z,21.98
2022-11-14T20:16:12.631Z,20.92
2022-11-14T20:18:40.486Z,21.33
2022-11-14T20:21:10.667Z,21.48
2022-11-14T20:23:37.605Z,20.23
2022-11-14T20:26:10.967Z,20.58
2022-11-14T20:31:07.416Z,20.77
2022-11-14T20:33:39.070Z,22.17
2022-11-14T20:36:11.507Z,21.33
2022-11-14T20:38:38.104Z,21.85
2022-11-14T20:41:05.333Z,21.48
2022-11-14T20:43:32.323Z,21.50
2022-11-14T20:46:06.130Z,16.42
2022-11-14T20:48:37.495Z,15.88
2022-11-14T20:51:10.460Z,17.08
2022-11-14T20:53:37.134Z,17.77
2022-11-14T20:56:06.698Z,17.17
2022-11-14T20:58:33.740Z,18.23
2022-11-14T21:01:00.347Z,18.52
2022-11-14T21:03:30.019Z,18.13
2022-11-14T21:06:00.171Z,18.23
2022-11-14T21:08:26.792Z,19.42
2022-11-14T21:11:02.033Z,18.60
2022-11-14T21:13:47.292Z,18.95
2022-11-14T21:16:19.120Z,18.90
2022-11-14T21:18:48.346Z,18.58
2022-11-14T21:21:19.821Z,19.05
2022-11-14T21:23:47.317Z,19.15
2022-11-14T21:26:13.695Z,18.30
2022-11-14T21:28:43.026Z,18.60
2022-11-14T21:31:18.546Z,18.40
2022-11-14T21:33:45.929Z,18.65
2022-11-14T21:36:43.095Z,18.90
2022-11-14T21:39:03.096Z,18.58
2022-11-14T21:41:31.046Z,19.02
2022-11-14T21:43:59.675Z,21.02
2022-11-14T21:46:27.164Z,23.15
2022-11-14T21:48:55.502Z,22.98
2022-11-14T21:51:24.514Z,20.33
2022-11-14T21:53:54.539Z,19.70
2022-11-14T21:56:22.520Z,21.98
2022-11-14T21:58:50.576Z,20.52
2022-11-14T22:01:40.416Z,18.65
2022-11-14T22:04:12.962Z,18.25
2022-11-14T22:06:41.380Z,19.08
2022-11-14T22:09:08.672Z,18.73
2022-11-14T22:11:37.963Z,19.80
2022-11-14T22:14:04.578Z,20.25
2022-11-14T22:16:31.569Z,18.98
2022-11-14T22:19:04.524Z,19.58
2022-11-14T22:21:31.635Z,17.98
2022-11-14T22:23:58.200Z,16.90
2022-11-14T22:26:24.604Z,20.70
2022-11-14T22:28:51.057Z,23.75
2022-11-14T22:31:22.960Z,22.95
2022-11-14T22:33:57.907Z,25.17
2022-11-14T22:36:26.319Z,24.20
2022-11-14T22:38:54.706Z,23.25
2022-11-14T22:41:30.690Z,22.30
2022-11-14T22:44:01.777Z,18.90
2022-11-14T22:46:28.999Z,17.45
2022-11-14T22:48:55.987Z,17.58
2022-11-14T22:51:26.893Z,16.58
2022-11-14T22:53:55.174Z,17.13
2022-11-14T22:56:24.331Z,16.98
2022-11-14T22:58:51.443Z,15.48
2022-11-14T23:01:20.886Z,16.65
2022-11-14T23:03:48.331Z,17.25
2022-11-14T23:06:17.644Z,16.77
2022-11-14T23:08:44.381Z,15.55
2022-11-14T23:11:14.418Z,14.88
2022-11-14T23:13:43.550Z,13.38
2022-11-14T23:16:18.657Z,11.73
2022-11-14T23:18:48.199Z,11.38
2022-11-14T23:21:20.028Z,10.63
2022-11-14T23:23:46.832Z,10.20
2022-11-14T23:26:20.172Z,10.48
2022-11-14T23:28:46.655Z,11.80
2022-11-14T23:31:19.440Z,11.88
2022-11-14T23:33:47.307Z,12.25
2022-11-14T23:36:16.486Z,12.25
2022-11-14T23:38:42.946Z,11.90
2022-11-14T23:41:16.239Z,11.40
2022-11-14T23:43:42.793Z,13.23
2022-11-14T23:46:11.766Z,13.82
2022-11-14T23:48:38.195Z,14.93
2022-11-14T23:51:04.721Z,16.05
2022-11-14T23:53:31.535Z,14.68
2022-11-14T23:56:01.963Z,14.30
2022-11-14T23:58:29.920Z,12.85
